sensor_id;sensor_type;location;lat;lon;timestamp;P1;durP1;ratioP1;P2;durP2;ratioP2
29712;SDS011;16623;53.632;10.016;2022-11-20T09:26:47;7.60;;;4.70;;
29712;SDS011;16623;53.632;10.016;2022-11-20T09:29:13;5.78;;;4.10;;
29712;SDS011;16623;53.632;10.016;2022-11-20T09:31:39;7.35;;;4.50;;
29712;SDS011;16623;53.632;10.016;2022-11-20T09:34:05;5.82;;;4.00;;
29712;SDS011;16623;53.632;10.016;2022-11-20T09:36:31;6.70;;;4.88;;
29712;SDS011;16623;53.632;10.016;2022-11-20T09:38:57;7.18;;;5.20;;
29712;SDS011;16623;53.632;10.016;2022-11-20T09:44:04;15.05;;;4.53;;
29712;SDS011;16623;53.632;10.016;2022-11-20T09:52:44;10.35;;;5.35;;
29712;SDS011;16623;53.632;10.016;2022-11-20T09:55:20;11.27;;;5.45;;
29712;SDS011;16623;53.632;10.016;2022-11-20T09:57:46;7.45;;;5.22;;
29712;SDS011;16623;53.632;10.016;2022-11-20T10:00:15;8.98;;;4.55;;
29712;SDS011;16623;53.632;10.016;2022-11-20T10:02:44;5.53;;;3.92;;
29712;SDS011;16623;53.632;10.016;2022-11-20T10:05:39;6.18;;;4.68;;
29712;SDS011;16623;53.632;10.016;2022-11-20T10:08:24;5.53;;;4.47;;
29712;SDS011;16623;53.632;10.016;2022-11-20T10:11:05;5.03;;;4.03;;
29712;SDS011;16623;53.632;10.016;2022-11-20T10:16:51;6.60;;;4.88;;
29712;SDS011;16623;53.632;10.016;2022-11-20T10:19:30;5.38;;;3.72;;
29712;SDS011;16623;53.632;10.016;2022-11-20T10:22:32;4.15;;;3.75;;
29712;SDS011;16623;53.632;10.016;2022-11-20T10:25:14;4.80;;;3.70;;
29712;SDS011;16623;53.632;10.016;2022-11-20T10:30:38;3.63;;;3.28;;
29712;SDS011;16623;53.632;10.016;2022-11-20T10:33:22;8.13;;;3.47;;
29712;SDS011;16623;53.632;10.016;2022-11-20T10:38:44;4.38;;;3.22;;
29712;SDS011;16623;53.632;10.016;2022-11-20T10:41:16;5.07;;;4.00;;
29712;SDS011;16623;53.632;10.016;2022-11-20T10:43:50;7.75;;;3.40;;
29712;SDS011;16623;53.632;10.016;2022-11-20T10:46:47;5.00;;;3.83;;
29712;SDS011;16623;53.632;10.016;2022-11-20T10:49:16;4.90;;;3.90;;
29712;SDS011;16623;53.632;10.016;2022-11-20T10:57:07;5.45;;;4.25;;
29712;SDS011;16623;53.632;10.016;2022-11-20T11:00:00;6.15;;;4.55;;
29712;SDS011;16623;53.632;10.016;2022-11-20T11:05:12;4.60;;;4.03;;
29712;SDS011;16623;53.632;10.016;2022-11-20T11:08:03;4.55;;;3.97;;
29712;SDS011;16623;53.632;10.016;2022-11-20T11:10:39;7.10;;;3.92;;
29712;SDS011;16623;53.632;10.016;2022-11-20T11:13:20;5.82;;;4.15;;
29712;SDS011;16623;53.632;10.016;2022-11-20T11:15:47;4.82;;;4.25;;
29712;SDS011;16623;53.632;10.016;2022-11-20T11:18:22;4.18;;;3.60;;
29712;SDS011;16623;53.632;10.016;2022-11-20T11:20:53;7.60;;;4.43;;
29712;SDS011;16623;53.632;10.016;2022-11-20T11:23:30;4.40;;;3.33;;
29712;SDS011;16623;53.632;10.016;2022-11-20T11:25:59;4.30;;;3.60;;
29712;SDS011;16623;53.632;10.016;2022-11-20T11:28:27;4.95;;;3.33;;
29712;SDS011;16623;53.632;10.016;2022-11-20T11:30:53;3.60;;;3.00;;
29712;SDS011;16623;53.632;10.016;2022-11-20T11:33:22;8.07;;;4.55;;
29712;SDS011;16623;53.632;10.016;2022-11-20T11:35:50;3.40;;;3.10;;
29712;SDS011;16623;53.632;10.016;2022-11-20T11:38:44;4.05;;;3.40;;
29712;SDS011;16623;53.632;10.016;2022-11-20T11:41:18;5.50;;;4.00;;
29712;SDS011;16623;53.632;10.016;2022-11-20T11:43:52;4.28;;;3.33;;
29712;SDS011;16623;53.632;10.016;2022-11-20T11:46:37;3.97;;;3.10;;
29712;SDS011;16623;53.632;10.016;2022-11-20T12:02:42;5.03;;;4.35;;
29712;SDS011;16623;53.632;10.016;2022-11-20T12:05:29;3.00;;;2.70;;
29712;SDS011;16623;53.632;10.016;2022-11-20T12:10:56;4.18;;;3.05;;
29712;SDS011;16623;53.632;10.016;2022-11-20T12:13:35;9.27;;;5.03;;
29712;SDS011;16623;53.632;10.016;2022-11-20T12:16:35;3.25;;;2.50;;
29712;SDS011;16623;53.632;10.016;2022-11-20T12:19:03;6.30;;;3.63;;
29712;SDS011;16623;53.632;10.016;2022-11-20T12:21:41;3.95;;;3.05;;
29712;SDS011;16623;53.632;10.016;2022-11-20T12:27:11;4.78;;;3.28;;
29712;SDS011;16623;53.632;10.016;2022-11-20T12:30:02;9.40;;;4.03;;
29712;SDS011;16623;53.632;10.016;2022-11-20T12:37:34;3.97;;;3.00;;
29712;SDS011;16623;53.632;10.016;2022-11-20T12:40:22;3.70;;;3.30;;
29712;SDS011;16623;53.632;10.016;2022-11-20T12:51:50;3.22;;;2.67;;
29712;SDS011;16623;53.632;10.016;2022-11-20T13:00:20;4.95;;;3.50;;
29712;SDS011;16623;53.632;10.016;2022-11-20T13:02:58;3.92;;;3.35;;
29712;SDS011;16623;53.632;10.016;2022-11-20T13:05:37;4.05;;;2.92;;
29712;SDS011;16623;53.632;10.016;2022-11-20T13:08:11;5.05;;;3.45;;
29712;SDS011;16623;53.632;10.016;2022-11-20T13:10:57;3.80;;;2.83;;
29712;SDS011;16623;53.632;10.016;2022-11-20T13:16:47;3.92;;;2.83;;
29712;SDS011;16623;53.632;10.016;2022-11-20T13:19:40;4.40;;;2.95;;
29712;SDS011;16623;53.632;10.016;2022-11-20T13:22:07;4.10;;;2.88;;
29712;SDS011;16623;53.632;10.016;2022-11-20T13:24:34;3.47;;;3.00;;
29712;SDS011;16623;53.632;10.016;2022-11-20T13:27:01;3.85;;;3.15;;
29712;SDS011;16623;53.632;10.016;2022-11-20T13:29:29;3.20;;;2.90;;
29712;SDS011;16623;53.632;10.016;2022-11-20T13:34:52;4.80;;;3.15;;
29712;SDS011;16623;53.632;10.016;2022-11-20T13:37:29;3.47;;;2.83;;
29712;SDS011;16623;53.632;10.016;2022-11-20T13:42:44;3.60;;;2.95;;
29712;SDS011;16623;53.632;10.016;2022-11-20T13:45:26;4.25;;;2.78;;
29712;SDS011;16623;53.632;10.016;2022-11-20T13:47:53;8.95;;;3.55;;
29712;SDS011;16623;53.632;10.016;2022-11-20T13:50:40;5.70;;;3.30;;
29712;SDS011;16623;53.632;10.016;2022-11-20T13:53:15;5.47;;;3.30;;
29712;SDS011;16623;53.632;10.016;2022-11-20T13:56:10;3.70;;;3.20;;
29712;SDS011;16623;53.632;10.016;2022-11-20T14:01:24;6.22;;;3.38;;
29712;SDS011;16623;53.632;10.016;2022-11-20T14:03:56;3.88;;;2.72;;
29712;SDS011;16623;53.632;10.016;2022-11-20T14:08:58;5.13;;;3.72;;
29712;SDS011;16623;53.632;10.016;2022-11-20T14:11:25;6.13;;;3.00;;
29712;SDS011;16623;53.632;10.016;2022-11-20T14:16:23;3.65;;;3.20;;
29712;SDS011;16623;53.632;10.016;2022-11-20T14:18:49;3.75;;;2.70;;
29712;SDS011;16623;53.632;10.016;2022-11-20T14:21:27;5.22;;;3.03;;
29712;SDS011;16623;53.632;10.016;2022-11-20T14:24:07;8.07;;;3.40;;
29712;SDS011;16623;53.632;10.016;2022-11-20T14:26:36;3.97;;;3.30;;
29712;SDS011;16623;53.632;10.016;2022-11-20T14:29:10;6.65;;;3.85;;
29712;SDS011;16623;53.632;10.016;2022-11-20T14:31:50;5.60;;;3.42;;
29712;SDS011;16623;53.632;10.016;2022-11-20T14:34:24;5.38;;;3.53;;
29712;SDS011;16623;53.632;10.016;2022-11-20T14:36:53;6.90;;;4.18;;
29712;SDS011;16623;53.632;10.016;2022-11-20T14:39:30;4.45;;;3.70;;
29712;SDS011;16623;53.632;10.016;2022-11-20T14:42:00;5.30;;;3.60;;
29712;SDS011;16623;53.632;10.016;2022-11-20T14:44:27;6.93;;;4.07;;
29712;SDS011;16623;53.632;10.016;2022-11-20T14:46:56;12.07;;;4.57;;
29712;SDS011;16623;53.632;10.016;2022-11-20T14:49:25;5.00;;;3.60;;
29712;SDS011;16623;53.632;10.016;2022-11-20T14:52:10;4.53;;;3.45;;
29712;SDS011;16623;53.632;10.016;2022-11-20T14:54:52;6.22;;;3.70;;
29712;SDS011;16623;53.632;10.016;2022-11-20T14:57:29;6.63;;;4.13;;
29712;SDS011;16623;53.632;10.016;2022-11-20T15:02:44;5.22;;;3.67;;
29712;SDS011;16623;53.632;10.016;2022-11-20T15:05:11;5.38;;;4.32;;
29712;SDS011;16623;53.632;10.016;2022-11-20T15:07:38;5.57;;;4.07;;
29712;SDS011;16623;53.632;10.016;2022-11-20T15:10:11;6.53;;;4.78;;
29712;SDS011;16623;53.632;10.016;2022-11-20T15:12:38;10.50;;;3.90;;
29712;SDS011;16623;53.632;10.016;2022-11-20T15:15:11;10.90;;;4.10;;
29712;SDS011;16623;53.632;10.016;2022-11-20T15:17:39;6.80;;;4.18;;
29712;SDS011;16623;53.632;10.016;2022-11-20T15:20:09;5.95;;;4.18;;
29712;SDS011;16623;53.632;10.016;2022-11-20T15:22:38;6.57;;;3.47;;
29712;SDS011;16623;53.632;10.016;2022-11-20T15:25:14;6.40;;;3.35;;
29712;SDS011;16623;53.632;10.016;2022-11-20T15:27:41;4.50;;;3.35;;
29712;SDS011;16623;53.632;10.016;2022-11-20T15:30:12;4.35;;;3.70;;
29712;SDS011;16623;53.632;10.016;2022-11-20T15:32:40;10.05;;;3.05;;
29712;SDS011;16623;53.632;10.016;2022-11-20T15:35:06;4.18;;;3.13;;
29712;SDS011;16623;53.632;10.016;2022-11-20T15:37:31;5.35;;;2.90;;
29712;SDS011;16623;53.632;10.016;2022-11-20T15:39:57;8.63;;;3.25;;
29712;SDS011;16623;53.632;10.016;2022-11-20T15:42:22;3.67;;;2.80;;
29712;SDS011;16623;53.632;10.016;2022-11-20T15:44:48;7.00;;;2.67;;
29712;SDS011;16623;53.632;10.016;2022-11-20T15:47:14;5.28;;;3.88;;
29712;SDS011;16623;53.632;10.016;2022-11-20T15:49:42;3.58;;;2.80;;
29712;SDS011;16623;53.632;10.016;2022-11-20T15:52:08;5.10;;;3.00;;
29712;SDS011;16623;53.632;10.016;2022-11-20T15:54:41;6.07;;;3.30;;
29712;SDS011;16623;53.632;10.016;2022-11-20T15:57:06;4.32;;;3.00;;
29712;SDS011;16623;53.632;10.016;2022-11-20T15:59:32;4.40;;;3.00;;
29712;SDS011;16623;53.632;10.016;2022-11-20T16:01:58;6.07;;;3.63;;
29712;SDS011;16623;53.632;10.016;2022-11-20T16:04:23;6.15;;;3.67;;
29712;SDS011;16623;53.632;10.016;2022-11-20T16:06:49;6.82;;;4.32;;
29712;SDS011;16623;53.632;10.016;2022-11-20T16:09:15;6.82;;;4.32;;
29712;SDS011;16623;53.632;10.016;2022-11-20T16:11:40;11.05;;;4.32;;
29712;SDS011;16623;53.632;10.016;2022-11-20T16:14:09;5.47;;;4.30;;
29712;SDS011;16623;53.632;10.016;2022-11-20T16:16:54;7.90;;;4.60;;
29712;SDS011;16623;53.632;10.016;2022-11-20T16:19:19;6.70;;;4.43;;
29712;SDS011;16623;53.632;10.016;2022-11-20T16:21:45;7.60;;;5.57;;
29712;SDS011;16623;53.632;10.016;2022-11-20T16:24:11;7.40;;;5.15;;
29712;SDS011;16623;53.632;10.016;2022-11-20T16:26:38;11.32;;;7.75;;
29712;SDS011;16623;53.632;10.016;2022-11-20T16:29:05;7.82;;;5.55;;
29712;SDS011;16623;53.632;10.016;2022-11-20T16:31:31;5.38;;;4.68;;
29712;SDS011;16623;53.632;10.016;2022-11-20T16:33:58;5.95;;;4.68;;
29712;SDS011;16623;53.632;10.016;2022-11-20T16:36:26;9.30;;;5.15;;
29712;SDS011;16623;53.632;10.016;2022-11-20T16:38:59;8.02;;;5.18;;
29712;SDS011;16623;53.632;10.016;2022-11-20T16:41:27;6.30;;;4.40;;
29712;SDS011;16623;53.632;10.016;2022-11-20T16:43:55;9.27;;;5.55;;
29712;SDS011;16623;53.632;10.016;2022-11-20T16:46:25;9.18;;;5.10;;
29712;SDS011;16623;53.632;10.016;2022-11-20T16:48:53;9.25;;;5.95;;
29712;SDS011;16623;53.632;10.016;2022-11-20T16:51:21;8.43;;;5.75;;
29712;SDS011;16623;53.632;10.016;2022-11-20T16:53:48;6.80;;;4.78;;
29712;SDS011;16623;53.632;10.016;2022-11-20T16:56:16;8.13;;;4.68;;
29712;SDS011;16623;53.632;10.016;2022-11-20T16:58:47;10.35;;;5.75;;
29712;SDS011;16623;53.632;10.016;2022-11-20T17:01:15;8.15;;;5.25;;
29712;SDS011;16623;53.632;10.016;2022-11-20T17:03:45;7.57;;;5.25;;
29712;SDS011;16623;53.632;10.016;2022-11-20T17:06:18;8.35;;;5.80;;
29712;SDS011;16623;53.632;10.016;2022-11-20T17:08:45;9.55;;;5.47;;
29712;SDS011;16623;53.632;10.016;2022-11-20T17:11:12;9.38;;;6.50;;
29712;SDS011;16623;53.632;10.016;2022-11-20T17:13:41;9.65;;;6.85;;
29712;SDS011;16623;53.632;10.016;2022-11-20T17:16:08;9.73;;;7.40;;
29712;SDS011;16623;53.632;10.016;2022-11-20T17:18:36;10.70;;;7.32;;
29712;SDS011;16623;53.632;10.016;2022-11-20T17:21:01;12.60;;;7.80;;
29712;SDS011;16623;53.632;10.016;2022-11-20T17:23:31;10.57;;;6.95;;
29712;SDS011;16623;53.632;10.016;2022-11-20T17:26:00;10.85;;;6.55;;
29712;SDS011;16623;53.632;10.016;2022-11-20T17:28:38;11.73;;;8.30;;
29712;SDS011;16623;53.632;10.016;2022-11-20T17:31:05;14.23;;;8.35;;
29712;SDS011;16623;53.632;10.016;2022-11-20T17:33:36;12.93;;;8.40;;
29712;SDS011;16623;53.632;10.016;2022-11-20T17:36:03;11.10;;;8.05;;
29712;SDS011;16623;53.632;10.016;2022-11-20T17:38:29;13.27;;;6.88;;
29712;SDS011;16623;53.632;10.016;2022-11-20T17:41:05;11.15;;;7.57;;
29712;SDS011;16623;53.632;10.016;2022-11-20T17:43:36;11.02;;;6.93;;
29712;SDS011;16623;53.632;10.016;2022-11-20T17:46:12;12.95;;;7.30;;
29712;SDS011;16623;53.632;10.016;2022-11-20T17:48:40;11.32;;;7.20;;
29712;SDS011;16623;53.632;10.016;2022-11-20T17:51:08;13.65;;;7.85;;
29712;SDS011;16623;53.632;10.016;2022-11-20T17:53:36;15.48;;;8.25;;
29712;SDS011;16623;53.632;10.016;2022-11-20T17:56:04;12.38;;;7.50;;
29712;SDS011;16623;53.632;10.016;2022-11-20T17:58:49;14.82;;;8.15;;
29712;SDS011;16623;53.632;10.016;2022-11-20T18:01:15;14.15;;;8.27;;
29712;SDS011;16623;53.632;10.016;2022-11-20T18:03:41;18.63;;;10.25;;
29712;SDS011;16623;53.632;10.016;2022-11-20T18:06:14;11.90;;;7.32;;
29712;SDS011;16623;53.632;10.016;2022-11-20T18:08:40;12.18;;;8.18;;
29712;SDS011;16623;53.632;10.016;2022-11-20T18:11:14;11.95;;;7.63;;
29712;SDS011;16623;53.632;10.016;2022-11-20T18:13:44;11.70;;;7.78;;
29712;SDS011;16623;53.632;10.016;2022-11-20T18:16:31;14.15;;;7.25;;
29712;SDS011;16623;53.632;10.016;2022-11-20T18:18:59;12.02;;;7.57;;
29712;SDS011;16623;53.632;10.016;2022-11-20T18:21:26;11.80;;;7.82;;
29712;SDS011;16623;53.632;10.016;2022-11-20T18:23:53;12.63;;;8.07;;
29712;SDS011;16623;53.632;10.016;2022-11-20T18:26:20;11.65;;;7.95;;
29712;SDS011;16623;53.632;10.016;2022-11-20T18:28:46;13.00;;;8.30;;
29712;SDS011;16623;53.632;10.016;2022-11-20T18:31:12;13.23;;;8.25;;
29712;SDS011;16623;53.632;10.016;2022-11-20T18:33:37;11.75;;;8.10;;
29712;SDS011;16623;53.632;10.016;2022-11-20T18:36:10;13.90;;;8.25;;
29712;SDS011;16623;53.632;10.016;2022-11-20T18:38:39;10.77;;;7.57;;
29712;SDS011;16623;53.632;10.016;2022-11-20T18:41:08;12.27;;;7.60;;
29712;SDS011;16623;53.632;10.016;2022-11-20T18:43:55;13.57;;;7.85;;
29712;SDS011;16623;53.632;10.016;2022-11-20T18:46:39;11.90;;;7.60;;
29712;SDS011;16623;53.632;10.016;2022-11-20T18:49:06;9.40;;;6.75;;
29712;SDS011;16623;53.632;10.016;2022-11-20T18:51:32;12.00;;;6.72;;
29712;SDS011;16623;53.632;10.016;2022-11-20T18:53:58;11.40;;;7.15;;
29712;SDS011;16623;53.632;10.016;2022-11-20T18:56:23;13.77;;;7.53;;
29712;SDS011;16623;53.632;10.016;2022-11-20T18:58:49;10.88;;;7.07;;
29712;SDS011;16623;53.632;10.016;2022-11-20T19:01:15;11.25;;;7.53;;
29712;SDS011;16623;53.632;10.016;2022-11-20T19:03:41;10.00;;;6.97;;
29712;SDS011;16623;53.632;10.016;2022-11-20T19:06:16;10.25;;;6.97;;
29712;SDS011;16623;53.632;10.016;2022-11-20T19:08:42;11.32;;;6.97;;
29712;SDS011;16623;53.632;10.016;2022-11-20T19:11:08;9.82;;;6.97;;
29712;SDS011;16623;53.632;10.016;2022-11-20T19:13:35;11.98;;;8.10;;
29712;SDS011;16623;53.632;10.016;2022-11-20T19:16:02;10.43;;;7.38;;
29712;SDS011;16623;53.632;10.016;2022-11-20T19:18:28;9.45;;;7.28;;
29712;SDS011;16623;53.632;10.016;2022-11-20T19:20:53;14.88;;;9.35;;
29712;SDS011;16623;53.632;10.016;2022-11-20T19:23:19;10.63;;;8.05;;
29712;SDS011;16623;53.632;10.016;2022-11-20T19:25:46;11.63;;;7.97;;
29712;SDS011;16623;53.632;10.016;2022-11-20T19:28:12;15.50;;;7.97;;
29712;SDS011;16623;53.632;10.016;2022-11-20T19:30:37;13.32;;;9.02;;
29712;SDS011;16623;53.632;10.016;2022-11-20T19:33:05;14.10;;;9.40;;
29712;SDS011;16623;53.632;10.016;2022-11-20T19:35:30;18.30;;;11.60;;
29712;SDS011;16623;53.632;10.016;2022-11-20T19:37:56;16.73;;;11.65;;
29712;SDS011;16623;53.632;10.016;2022-11-20T19:40:21;15.52;;;10.55;;
29712;SDS011;16623;53.632;10.016;2022-11-20T19:42:47;17.98;;;10.95;;
29712;SDS011;16623;53.632;10.016;2022-11-20T19:45:13;18.10;;;11.63;;
29712;SDS011;16623;53.632;10.016;2022-11-20T19:47:38;19.60;;;10.82;;
29712;SDS011;16623;53.632;10.016;2022-11-20T19:50:04;19.40;;;12.43;;
29712;SDS011;16623;53.632;10.016;2022-11-20T19:52:30;16.38;;;11.50;;
29712;SDS011;16623;53.632;10.016;2022-11-20T19:54:55;16.40;;;11.45;;
29712;SDS011;16623;53.632;10.016;2022-11-20T19:57:21;22.25;;;11.82;;
29712;SDS011;16623;53.632;10.016;2022-11-20T19:59:46;17.67;;;11.05;;
29712;SDS011;16623;53.632;10.016;2022-11-20T20:02:12;20.33;;;12.85;;
29712;SDS011;16623;53.632;10.016;2022-11-20T20:04:37;17.77;;;12.48;;
29712;SDS011;16623;53.632;10.016;2022-11-20T20:07:03;19.58;;;13.00;;
29712;SDS011;16623;53.632;10.016;2022-11-20T20:09:30;21.45;;;13.50;;
29712;SDS011;16623;53.632;10.016;2022-11-20T20:11:58;20.38;;;11.80;;
29712;SDS011;16623;53.632;10.016;2022-11-20T20:14:23;17.50;;;12.77;;
29712;SDS011;16623;53.632;10.016;2022-11-20T20:16:49;25.30;;;13.88;;
29712;SDS011;16623;53.632;10.016;2022-11-20T20:19:15;18.48;;;13.23;;
29712;SDS011;16623;53.632;10.016;2022-11-20T20:21:40;20.33;;;13.23;;
29712;SDS011;16623;53.632;10.016;2022-11-20T20:24:06;18.27;;;12.55;;
29712;SDS011;16623;53.632;10.016;2022-11-20T20:26:33;22.27;;;13.35;;
29712;SDS011;16623;53.632;10.016;2022-11-20T20:28:59;19.58;;;12.95;;
29712;SDS011;16623;53.632;10.016;2022-11-20T20:31:26;18.70;;;13.18;;
29712;SDS011;16623;53.632;10.016;2022-11-20T20:33:53;21.75;;;12.75;;
29712;SDS011;16623;53.632;10.016;2022-11-20T20:36:20;20.15;;;12.82;;
29712;SDS011;16623;53.632;10.016;2022-11-20T20:38:47;19.48;;;12.25;;
29712;SDS011;16623;53.632;10.016;2022-11-20T20:41:19;20.85;;;12.57;;
29712;SDS011;16623;53.632;10.016;2022-11-20T20:43:46;23.95;;;14.00;;
29712;SDS011;16623;53.632;10.016;2022-11-20T20:46:30;21.60;;;13.93;;
29712;SDS011;16623;53.632;10.016;2022-11-20T20:48:56;19.92;;;13.52;;
29712;SDS011;16623;53.632;10.016;2022-11-20T20:51:21;19.38;;;12.70;;
29712;SDS011;16623;53.632;10.016;2022-11-20T20:53:47;21.15;;;13.75;;
29712;SDS011;16623;53.632;10.016;2022-11-20T20:56:13;21.13;;;14.98;;
29712;SDS011;16623;53.632;10.016;2022-11-20T20:58:39;20.30;;;13.35;;
29712;SDS011;16623;53.632;10.016;2022-11-20T21:01:13;24.15;;;14.38;;
29712;SDS011;16623;53.632;10.016;2022-11-20T21:03:39;25.33;;;14.80;;
29712;SDS011;16623;53.632;10.016;2022-11-20T21:06:06;25.52;;;14.85;;
29712;SDS011;16623;53.632;10.016;2022-11-20T21:08:33;26.00;;;15.10;;
29712;SDS011;16623;53.632;10.016;2022-11-20T21:11:01;21.35;;;13.73;;
29712;SDS011;16623;53.632;10.016;2022-11-20T21:16:00;29.10;;;15.02;;
29712;SDS011;16623;53.632;10.016;2022-11-20T21:18:27;28.48;;;14.77;;
29712;SDS011;16623;53.632;10.016;2022-11-20T21:20:53;24.67;;;14.38;;
29712;SDS011;16623;53.632;10.016;2022-11-20T21:23:37;23.50;;;14.88;;
29712;SDS011;16623;53.632;10.016;2022-11-20T21:26:05;23.92;;;14.88;;
29712;SDS011;16623;53.632;10.016;2022-11-20T21:28:32;26.58;;;16.83;;
29712;SDS011;16623;53.632;10.016;2022-11-20T21:33:51;31.70;;;18.90;;
29712;SDS011;16623;53.632;10.016;2022-11-20T21:36:18;25.25;;;14.45;;
29712;SDS011;16623;53.632;10.016;2022-11-20T21:38:54;25.25;;;16.48;;
29712;SDS011;16623;53.632;10.016;2022-11-20T21:41:21;28.48;;;16.75;;
29712;SDS011;16623;53.632;10.016;2022-11-20T21:43:49;26.70;;;16.50;;
29712;SDS011;16623;53.632;10.016;2022-11-20T21:46:16;25.05;;;16.02;;
29712;SDS011;16623;53.632;10.016;2022-11-20T21:48:42;32.53;;;17.27;;
29712;SDS011;16623;53.632;10.016;2022-11-20T21:51:13;27.98;;;17.50;;
29712;SDS011;16623;53.632;10.016;2022-11-20T21:53:41;28.10;;;16.83;;
29712;SDS011;16623;53.632;10.016;2022-11-20T21:56:08;30.02;;;18.17;;
29712;SDS011;16623;53.632;10.016;2022-11-20T21:58:34;26.92;;;17.05;;
29712;SDS011;16623;53.632;10.016;2022-11-20T22:01:14;27.65;;;17.35;;
29712;SDS011;16623;53.632;10.016;2022-11-20T22:03:41;32.83;;;17.73;;
29712;SDS011;16623;53.632;10.016;2022-11-20T22:06:08;32.83;;;18.35;;
29712;SDS011;16623;53.632;10.016;2022-11-20T22:08:34;31.75;;;18.40;;
29712;SDS011;16623;53.632;10.016;2022-11-20T22:11:02;31.52;;;19.33;;
29712;SDS011;16623;53.632;10.016;2022-11-20T22:13:32;28.67;;;18.83;;
29712;SDS011;16623;53.632;10.016;2022-11-20T22:16:17;31.77;;;18.73;;
29712;SDS011;16623;53.632;10.016;2022-11-20T22:18:47;33.35;;;19.42;;
29712;SDS011;16623;53.632;10.016;2022-11-20T22:21:14;33.83;;;19.13;;
29712;SDS011;16623;53.632;10.016;2022-11-20T22:23:41;32.97;;;18.98;;
29712;SDS011;16623;53.632;10.016;2022-11-20T22:26:11;32.83;;;18.60;;
29712;SDS011;16623;53.632;10.016;2022-11-20T22:28:38;38.13;;;19.75;;
29712;SDS011;16623;53.632;10.016;2022-11-20T22:31:09;34.55;;;21.08;;
29712;SDS011;16623;53.632;10.016;2022-11-20T22:33:35;33.00;;;20.50;;
29712;SDS011;16623;53.632;10.016;2022-11-20T22:36:03;37.90;;;20.52;;
29712;SDS011;16623;53.632;10.016;2022-11-20T22:38:39;33.08;;;20.15;;
29712;SDS011;16623;53.632;10.016;2022-11-20T22:41:12;39.50;;;23.30;;
29712;SDS011;16623;53.632;10.016;2022-11-20T22:43:39;34.85;;;21.52;;
29712;SDS011;16623;53.632;10.016;2022-11-20T22:46:07;33.50;;;20.65;;
29712;SDS011;16623;53.632;10.016;2022-11-20T22:48:39;37.47;;;20.02;;
29712;SDS011;16623;53.632;10.016;2022-11-20T22:51:06;34.30;;;20.67;;
29712;SDS011;16623;53.632;10.016;2022-11-20T22:53:33;32.55;;;19.70;;
29712;SDS011;16623;53.632;10.016;2022-11-20T22:56:00;37.80;;;21.05;;
29712;SDS011;16623;53.632;10.016;2022-11-20T22:58:26;33.75;;;19.95;;
29712;SDS011;16623;53.632;10.016;2022-11-20T23:01:04;32.10;;;18.98;;
29712;SDS011;16623;53.632;10.016;2022-11-20T23:03:33;38.95;;;21.67;;
29712;SDS011;16623;53.632;10.016;2022-11-20T23:05:59;34.50;;;19.83;;
29712;SDS011;16623;53.632;10.016;2022-11-20T23:08:26;31.30;;;18.67;;
29712;SDS011;16623;53.632;10.016;2022-11-20T23:10:52;32.40;;;18.83;;
29712;SDS011;16623;53.632;10.016;2022-11-20T23:13:22;29.25;;;17.95;;
29712;SDS011;16623;53.632;10.016;2022-11-20T23:15:48;30.17;;;18.45;;
29712;SDS011;16623;53.632;10.016;2022-11-20T23:18:13;30.45;;;19.42;;
29712;SDS011;16623;53.632;10.016;2022-11-20T23:20:39;33.13;;;18.52;;
29712;SDS011;16623;53.632;10.016;2022-11-20T23:23:04;30.15;;;17.88;;
29712;SDS011;16623;53.632;10.016;2022-11-20T23:25:30;33.20;;;19.35;;
29712;SDS011;16623;53.632;10.016;2022-11-20T23:27:55;30.65;;;18.48;;
29712;SDS011;16623;53.632;10.016;2022-11-20T23:30:21;27.88;;;16.95;;
29712;SDS011;16623;53.632;10.016;2022-11-20T23:32:46;32.72;;;19.27;;
29712;SDS011;16623;53.632;10.016;2022-11-20T23:35:12;27.02;;;16.70;;
29712;SDS011;16623;53.632;10.016;2022-11-20T23:37:38;29.65;;;17.02;;
29712;SDS011;16623;53.632;10.016;2022-11-20T23:40:03;25.38;;;17.08;;
29712;SDS011;16623;53.632;10.016;2022-11-20T23:42:30;26.90;;;15.57;;
29712;SDS011;16623;53.632;10.016;2022-11-20T23:44:55;25.08;;;16.23;;
29712;SDS011;16623;53.632;10.016;2022-11-20T23:47:20;24.83;;;15.55;;
29712;SDS011;16623;53.632;10.016;2022-11-20T23:49:46;22.77;;;15.25;;
29712;SDS011;16623;53.632;10.016;2022-11-20T23:52:11;22.92;;;14.65;;
29712;SDS011;16623;53.632;10.016;2022-11-20T23:54:37;24.48;;;14.95;;
29712;SDS011;16623;53.632;10.016;2022-11-20T23:57:02;26.55;;;15.82;;
29712;SDS011;16623;53.632;10.016;2022-11-20T23:59:28;26.42;;;16.17;;
